首页
METAR-TAF:

METAR-TAF

机场 :

Northwest Florida Regional Airport / Eglin Air Force Base

瓦尔帕莱索, 佛罗里达州, 美国

纬度: 30-29N, 经度: 086-31W, 海拔: 26米

当前天气观测

该预报发布于38分钟前的08:56 UTC
静风
温度 24°C
湿度 94%
气压 1016 hPa
能見度: 16.1公里
少量云层高于9500英尺
多云层高于19000英尺

METAR: KVPS 010856Z AUTO 00000KT 10SM FEW095 BKN190 24/23 A2999 RMK AO2 LTG DSNT NE SLP162 60000 T02440230 50007 $

时间: 04:34 (09:34 UTC)

预报

该预报发布于34分钟前的09:00 UTC
预报有效从01日的 09点(UTC)到 02日的 15点(UTC)
风速6节,风向
能见度10公里或以上
少量云层高于4000英尺
散云层高于14000英尺
成为
从 01日的 17点(UTC)到 01日的 18点(UTC)
风速9节,风向西南
能见度10公里或以上
散云层高于3000英尺
多云层高于4500英尺
短暂存在
从 01日的 18点(UTC)到 01日的 23点(UTC)
风速12节,风向西南,有时为18节阵风
能見度: 8000
多云层高于3000英尺
多云层高于4500英尺, 积雨云.
雷暴, 小雨
成为
从 01日的 23点(UTC)到 01日的 24点(UTC)
风速6节,风向西南
能见度10公里或以上
散云层高于3000英尺
散云层高于15000英尺

TAF: KVPS 010900Z 0109/0215 35006KT 9999 FEW040 SCT140 QNH2996INS BECMG 0117/0118 22009KT 9999 SCT030 BKN045 QNH2993INS TEMPO 0118/0123 22012G18KT 8000 -TSRA BKN030 BKN045CB BECMG 0123/0124 23006KT 9999 SCT030 SCT150 QNH2996INS TX34/0119Z TN23/0111Z

超过4000个机场的气象观测和天气预报(METAR&TAF报告)。

可查询的气象台以黄色和红色小点在地图上表示。

将鼠标移到小点上方,可查看气象台名称。

然后点击查看天气观测和预报。

如需切换地图:点击带黑十字的绿色按钮放大地图;点击带横线的绿色按钮缩小地图;或者点击绿色箭头查看邻近地区的地图。


METAR-TAF: